Time;durP1;ratioP1;P1;durP2;ratioP2;P2;SDS_P1;SDS_P2;PMS_P1;PMS_P2;Temp;Humidity;BMP_temperature;BMP_pressure;BME280_temperature;BME280_humidity;BME280_pressure;Samples;Min_cycle;Max_cycle;Signal;HPM_P1;HPM_P2
2024/01/20 00:02:03;;;;;;;37.10;20.17;;;3.70;70.40;;;;;;5094898;28;20036;-72
2024/01/20 00:04:29;;;;;;;33.43;20.13;;;3.70;70.40;;;;;;5095449;28;20028;-72
2024/01/20 00:06:55;;;;;;;33.60;20.40;;;3.70;70.30;;;;;;5093745;28;20020;-71
2024/01/20 00:09:20;;;;;;;36.70;19.70;;;3.70;70.40;;;;;;5095793;27;20036;-71
2024/01/20 00:11:46;;;;;;;36.27;18.73;;;3.70;70.40;;;;;;5093993;28;20024;-73
2024/01/20 00:14:12;;;;;;;31.47;18.43;;;3.70;70.40;;;;;;5094274;28;20012;-71
2024/01/20 00:16:38;;;;;;;35.83;19.40;;;3.70;70.40;;;;;;5097354;28;20028;-72
2024/01/20 00:19:03;;;;;;;35.30;19.43;;;3.70;70.40;;;;;;5093848;28;20016;-73
2024/01/20 00:21:29;;;;;;;33.23;19.17;;;3.70;70.40;;;;;;5093700;28;20042;-71
2024/01/20 00:23:55;;;;;;;32.40;18.33;;;3.60;70.30;;;;;;5094052;28;20079;-71
2024/01/20 00:26:21;;;;;;;37.37;19.57;;;3.60;70.30;;;;;;5093892;28;20090;-71
2024/01/20 00:28:47;;;;;;;36.73;18.10;;;3.60;70.40;;;;;;5093517;28;20043;-72
2024/01/20 00:31:13;;;;;;;36.87;19.67;;;3.60;70.30;;;;;;5094535;28;20521;-72
2024/01/20 00:33:38;;;;;;;36.33;20.70;;;3.60;70.40;;;;;;5101591;28;20513;-71
2024/01/20 00:36:04;;;;;;;34.47;19.03;;;3.60;70.40;;;;;;5093897;28;20051;-73
2024/01/20 00:38:31;;;;;;;36.87;19.40;;;3.60;70.40;;;;;;5085207;28;20491;-73
2024/01/20 00:40:56;;;;;;;37.40;20.43;;;3.60;70.40;;;;;;5093992;28;20039;-73
2024/01/20 00:43:22;;;;;;;32.83;18.50;;;3.60;70.50;;;;;;5094565;28;20040;-73
2024/01/20 00:45:48;;;;;;;36.80;19.63;;;3.60;70.60;;;;;;5093831;28;20022;-73
2024/01/20 00:48:13;;;;;;;38.40;19.47;;;3.50;70.60;;;;;;5094935;28;20020;-73
2024/01/20 00:50:39;;;;;;;36.20;19.03;;;3.60;70.60;;;;;;5094662;28;20051;-73
2024/01/20 00:53:05;;;;;;;34.50;19.30;;;3.60;70.60;;;;;;5092064;28;20028;-73
2024/01/20 00:55:31;;;;;;;36.27;19.23;;;3.60;70.60;;;;;;5093199;28;20441;-72
2024/01/20 00:57:56;;;;;;;34.93;18.20;;;3.50;70.60;;;;;;5093595;28;20024;-72
2024/01/20 01:00:22;;;;;;;34.60;18.53;;;3.60;70.60;;;;;;5093170;28;20047;-72
2024/01/20 01:02:48;;;;;;;38.97;20.03;;;3.60;70.60;;;;;;5094228;28;20364;-72
2024/01/20 01:05:14;;;;;;;37.80;19.83;;;3.60;70.70;;;;;;5094051;28;20020;-72
2024/01/20 01:07:40;;;;;;;34.30;18.57;;;3.60;70.70;;;;;;5103686;28;20028;-72
2024/01/20 01:10:06;;;;;;;40.47;18.50;;;3.60;70.80;;;;;;5094225;28;20035;-72
2024/01/20 01:12:33;;;;;;;38.17;19.67;;;3.60;70.80;;;;;;5093834;28;20352;-72
2024/01/20 01:14:59;;;;;;;35.17;18.50;;;3.60;70.70;;;;;;5093976;28;20546;-72
2024/01/20 01:17:25;;;;;;;40.40;19.60;;;3.60;70.70;;;;;;5107459;28;20111;-73
2024/01/20 01:19:50;;;;;;;38.93;20.17;;;3.60;70.70;;;;;;5086167;28;20036;-72
2024/01/20 01:22:16;;;;;;;36.90;18.90;;;3.60;70.80;;;;;;5106702;28;20038;-72
2024/01/20 01:24:42;;;;;;;33.57;18.07;;;3.60;70.80;;;;;;5093856;28;20024;-72
2024/01/20 01:27:08;;;;;;;34.83;17.23;;;3.60;70.70;;;;;;5076141;28;20061;-72
2024/01/20 01:29:34;;;;;;;37.07;19.77;;;3.60;70.70;;;;;;5094051;28;20055;-72
2024/01/20 01:32:00;;;;;;;37.77;20.23;;;3.70;70.80;;;;;;5100419;27;20028;-72
2024/01/20 01:34:25;;;;;;;33.93;17.80;;;3.70;70.90;;;;;;5092634;28;20052;-72
2024/01/20 01:36:51;;;;;;;38.37;18.97;;;3.70;70.90;;;;;;5093712;28;20059;-72
2024/01/20 01:39:17;;;;;;;33.47;18.07;;;3.70;70.90;;;;;;5092811;28;20036;-72
2024/01/20 01:41:44;;;;;;;36.43;18.10;;;3.70;70.90;;;;;;5093520;28;20020;-72
2024/01/20 01:44:10;;;;;;;34.57;17.83;;;3.70;70.90;;;;;;5075499;28;20364;-72
2024/01/20 01:46:36;;;;;;;34.00;17.67;;;3.70;71.00;;;;;;5092722;28;20054;-72
2024/01/20 01:49:03;;;;;;;34.87;18.37;;;3.70;71.00;;;;;;5093725;28;20031;-72
2024/01/20 01:51:30;;;;;;;35.00;18.23;;;3.70;71.00;;;;;;5092990;28;20020;-72
2024/01/20 01:53:58;;;;;;;36.10;18.53;;;3.60;71.00;;;;;;5102528;28;20424;-72
2024/01/20 01:56:24;;;;;;;36.60;19.33;;;3.60;71.10;;;;;;5093504;28;20039;-72
2024/01/20 01:58:50;;;;;;;34.70;19.17;;;3.70;71.20;;;;;;5093596;28;20054;-72
2024/01/20 02:01:16;;;;;;;39.57;18.20;;;3.60;71.10;;;;;;5093444;28;20048;-72
2024/01/20 02:03:42;;;;;;;32.87;17.60;;;3.70;71.20;;;;;;5091666;28;20024;-72
2024/01/20 02:06:08;;;;;;;34.00;17.97;;;3.70;71.20;;;;;;5092102;28;20023;-72
2024/01/20 02:08:35;;;;;;;35.80;18.63;;;3.70;71.20;;;;;;5093791;28;20121;-72
2024/01/20 02:11:02;;;;;;;37.57;19.07;;;3.70;71.30;;;;;;5093049;28;20023;-72
2024/01/20 02:13:28;;;;;;;36.10;18.20;;;3.70;71.20;;;;;;5080982;28;20039;-72
2024/01/20 02:15:54;;;;;;;36.10;18.07;;;3.70;71.20;;;;;;5092559;28;20090;-72
2024/01/20 02:18:24;;;;;;;36.53;19.33;;;3.70;71.20;;;;;;5092481;28;20471;-72
2024/01/20 02:20:50;;;;;;;38.00;18.63;;;3.70;71.30;;;;;;5094509;28;20032;-72
2024/01/20 02:23:16;;;;;;;33.23;18.23;;;3.70;71.30;;;;;;5097055;28;20028;-72
2024/01/20 02:25:41;;;;;;;34.07;17.83;;;3.60;71.30;;;;;;5103258;28;20091;-72
2024/01/20 02:28:07;;;;;;;35.07;17.27;;;3.60;71.40;;;;;;5097001;28;20500;-72
2024/01/20 02:30:33;;;;;;;37.63;18.47;;;3.60;71.40;;;;;;5096043;28;20063;-72
2024/01/20 02:32:59;;;;;;;34.10;17.70;;;3.70;71.40;;;;;;5097485;28;20429;-72
2024/01/20 02:35:25;;;;;;;35.40;17.80;;;3.70;71.40;;;;;;5097005;28;20024;-72
2024/01/20 02:37:50;;;;;;;31.73;17.60;;;3.70;71.40;;;;;;5096307;28;20024;-72
2024/01/20 02:40:17;;;;;;;33.23;17.13;;;3.70;71.40;;;;;;5096968;28;20352;-72
2024/01/20 02:42:43;;;;;;;32.73;17.50;;;3.70;71.40;;;;;;5094428;28;20425;-72
2024/01/20 02:45:09;;;;;;;35.43;16.97;;;3.70;71.40;;;;;;5092020;28;20085;-72
2024/01/20 02:47:34;;;;;;;32.97;17.07;;;3.70;71.30;;;;;;5096045;28;20318;-72
2024/01/20 02:50:00;;;;;;;34.23;16.20;;;3.70;71.30;;;;;;5097231;28;20039;-73
2024/01/20 02:52:26;;;;;;;31.27;17.13;;;3.70;71.40;;;;;;5077058;28;20514;-73
2024/01/20 02:54:52;;;;;;;33.00;17.57;;;3.70;71.40;;;;;;5096312;28;20024;-73
2024/01/20 02:57:17;;;;;;;33.57;16.53;;;3.70;71.40;;;;;;5095809;28;20326;-72
2024/01/20 02:59:43;;;;;;;31.87;16.40;;;3.60;71.40;;;;;;5098812;28;20062;-73
2024/01/20 03:02:09;;;;;;;29.70;15.10;;;3.60;71.40;;;;;;5095737;28;20028;-72
2024/01/20 03:04:35;;;;;;;29.47;15.90;;;3.60;71.50;;;;;;5096629;28;20032;-73
2024/01/20 03:07:00;;;;;;;31.93;16.27;;;3.60;71.50;;;;;;5096588;28;20026;-72
2024/01/20 03:09:26;;;;;;;29.70;15.03;;;3.60;71.50;;;;;;5095305;28;20070;-72
2024/01/20 03:11:52;;;;;;;32.87;16.57;;;3.60;71.50;;;;;;5096430;28;20020;-72
2024/01/20 03:14:18;;;;;;;34.40;15.83;;;3.60;71.50;;;;;;5095678;28;20028;-72
2024/01/20 03:16:43;;;;;;;31.23;16.67;;;3.60;71.50;;;;;;5092863;28;20063;-72
2024/01/20 03:19:09;;;;;;;32.50;16.00;;;3.60;71.50;;;;;;5099714;28;20025;-73
2024/01/20 03:21:35;;;;;;;33.87;17.30;;;3.50;71.40;;;;;;5093245;28;20035;-73
2024/01/20 03:24:01;;;;;;;32.03;15.57;;;3.50;71.40;;;;;;5089257;28;20024;-72
2024/01/20 03:26:26;;;;;;;29.00;14.87;;;3.50;71.40;;;;;;5097702;28;20881;-73
2024/01/20 03:28:52;;;;;;;30.87;15.13;;;3.50;71.50;;;;;;5096054;28;20051;-72
2024/01/20 03:31:18;;;;;;;31.13;16.47;;;3.50;71.60;;;;;;5096312;28;20074;-72
2024/01/20 03:33:44;;;;;;;29.53;16.20;;;3.40;71.50;;;;;;5096791;28;20031;-72
2024/01/20 03:36:11;;;;;;;33.80;16.27;;;3.40;71.50;;;;;;5089908;28;20035;-72
2024/01/20 03:38:36;;;;;;;28.20;15.17;;;3.40;71.60;;;;;;5095358;28;20051;-72
2024/01/20 03:41:02;;;;;;;29.10;15.63;;;3.40;71.70;;;;;;5075637;28;20024;-72
2024/01/20 03:43:28;;;;;;;32.63;15.30;;;3.40;71.70;;;;;;5087230;28;20407;-72
2024/01/20 03:45:55;;;;;;;28.13;15.53;;;3.40;71.70;;;;;;5096865;28;20016;-72
2024/01/20 03:48:21;;;;;;;32.93;16.37;;;3.40;71.60;;;;;;5112316;28;20038;-72
2024/01/20 03:50:47;;;;;;;31.07;16.30;;;3.30;71.60;;;;;;5094569;28;20444;-72
2024/01/20 03:53:13;;;;;;;30.87;16.37;;;3.30;71.70;;;;;;5095465;28;20036;-72
2024/01/20 03:55:39;;;;;;;30.20;13.93;;;3.30;71.70;;;;;;5095399;28;20035;-72
2024/01/20 03:58:05;;;;;;;29.50;15.17;;;3.30;71.70;;;;;;5097087;28;20024;-72
2024/01/20 04:00:31;;;;;;;32.47;15.73;;;3.30;71.70;;;;;;5095246;28;20103;-73
2024/01/20 04:02:57;;;;;;;34.37;15.93;;;3.30;71.60;;;;;;5110357;27;20043;-72
2024/01/20 04:05:23;;;;;;;29.77;15.93;;;3.30;71.70;;;;;;5095908;28;20028;-72
2024/01/20 04:07:49;;;;;;;31.90;16.53;;;3.30;71.60;;;;;;5095230;28;20035;-73
2024/01/20 04:10:14;;;;;;;28.10;15.20;;;3.30;71.60;;;;;;5096051;28;20016;-72
2024/01/20 04:12:41;;;;;;;27.57;13.93;;;3.30;71.60;;;;;;5095657;28;20066;-72
2024/01/20 04:15:07;;;;;;;31.87;14.53;;;3.30;71.60;;;;;;5112247;28;20040;-72
2024/01/20 04:17:33;;;;;;;26.33;14.50;;;3.30;71.60;;;;;;5095898;28;20028;-73
2024/01/20 04:19:59;;;;;;;31.50;15.77;;;3.30;71.60;;;;;;5096130;28;20077;-72
2024/01/20 04:22:25;;;;;;;31.67;15.40;;;3.20;71.60;;;;;;5095114;28;20071;-72
2024/01/20 04:24:50;;;;;;;27.43;15.13;;;3.20;71.70;;;;;;5093489;28;20028;-72
2024/01/20 04:27:16;;;;;;;29.60;13.83;;;3.20;71.70;;;;;;5093677;28;20024;-72
2024/01/20 04:29:42;;;;;;;30.40;15.20;;;3.20;71.70;;;;;;5111012;28;20032;-72
2024/01/20 04:32:08;;;;;;;30.70;14.57;;;3.20;71.70;;;;;;5095707;28;20020;-73
2024/01/20 04:34:33;;;;;;;30.53;14.63;;;3.20;71.70;;;;;;5095911;28;20394;-72
2024/01/20 04:36:59;;;;;;;29.97;14.67;;;3.20;71.70;;;;;;5094474;28;20031;-72
2024/01/20 04:39:25;;;;;;;31.47;13.97;;;3.20;71.70;;;;;;5095955;28;20043;-72
2024/01/20 04:41:50;;;;;;;29.97;15.20;;;3.20;72.40;;;;;;5095429;28;20464;-72
2024/01/20 04:44:16;;;;;;;29.90;14.20;;;3.20;71.80;;;;;;5095100;28;20093;-72
2024/01/20 04:46:42;;;;;;;30.10;14.80;;;3.10;71.70;;;;;;5094912;28;20024;-72
2024/01/20 04:49:08;;;;;;;30.80;14.50;;;3.20;71.90;;;;;;5095845;28;20048;-72
2024/01/20 04:51:33;;;;;;;28.23;14.03;;;3.10;71.90;;;;;;5095660;28;20035;-72
2024/01/20 04:53:59;;;;;;;28.50;14.80;;;3.10;71.80;;;;;;5093552;28;20020;-72
2024/01/20 04:56:25;;;;;;;28.53;15.47;;;3.10;71.80;;;;;;5094950;28;20032;-72
2024/01/20 04:58:55;;;;;;;25.57;13.80;;;3.10;71.90;;;;;;5095258;28;20039;-72
2024/01/20 05:01:21;;;;;;;30.37;15.13;;;3.10;71.90;;;;;;5107620;28;20039;-72
2024/01/20 05:03:47;;;;;;;28.77;14.27;;;3.10;71.90;;;;;;5094246;28;20127;-72
2024/01/20 05:06:13;;;;;;;26.63;14.50;;;3.10;71.90;;;;;;5093813;28;20484;-72
2024/01/20 05:08:39;;;;;;;25.93;14.47;;;3.10;71.90;;;;;;5091762;28;20077;-72
2024/01/20 05:11:06;;;;;;;27.37;14.30;;;3.00;71.90;;;;;;5094473;28;20020;-72
2024/01/20 05:13:32;;;;;;;27.70;14.90;;;3.10;72.00;;;;;;5093611;28;20024;-72
2024/01/20 05:15:58;;;;;;;30.33;15.00;;;3.00;71.90;;;;;;5093664;28;20164;-72
2024/01/20 05:18:23;;;;;;;26.77;13.70;;;3.00;72.00;;;;;;5093290;28;20324;-72
2024/01/20 05:20:49;;;;;;;27.60;14.63;;;3.10;72.00;;;;;;5094437;28;20035;-72
2024/01/20 05:23:15;;;;;;;28.77;14.67;;;3.10;72.00;;;;;;5090326;28;20059;-72
2024/01/20 05:25:40;;;;;;;27.63;14.37;;;3.10;72.00;;;;;;5102593;28;20056;-72
2024/01/20 05:28:06;;;;;;;28.50;13.70;;;3.10;72.00;;;;;;5093452;28;20012;-72
2024/01/20 05:30:32;;;;;;;27.97;13.60;;;3.10;72.00;;;;;;5093543;28;20448;-72
2024/01/20 05:32:58;;;;;;;27.13;14.10;;;3.10;72.00;;;;;;5094263;28;20034;-72
2024/01/20 05:35:23;;;;;;;28.30;14.13;;;3.10;72.00;;;;;;5095637;28;20048;-72
2024/01/20 05:37:49;;;;;;;31.77;15.57;;;3.10;72.00;;;;;;5092882;28;20093;-73
2024/01/20 05:40:15;;;;;;;24.60;13.37;;;3.10;72.10;;;;;;5094614;28;20042;-72
2024/01/20 05:42:41;;;;;;;30.80;14.27;;;3.10;72.10;;;;;;5094412;28;20092;-72
2024/01/20 05:45:09;;;;;;;26.83;13.57;;;3.10;72.10;;;;;;5095128;28;20044;-72
2024/01/20 05:47:38;;;;;;;28.23;14.80;;;3.10;72.10;;;;;;5107003;28;20043;-73
2024/01/20 05:50:04;;;;;;;26.33;14.10;;;3.10;72.10;;;;;;5092447;28;20051;-72
2024/01/20 05:52:29;;;;;;;25.83;12.87;;;3.10;72.10;;;;;;5093884;28;20119;-73
2024/01/20 05:54:55;;;;;;;24.20;13.17;;;3.10;72.10;;;;;;5107502;28;20409;-72
2024/01/20 05:57:21;;;;;;;27.23;12.73;;;3.10;72.10;;;;;;5094476;28;20111;-72
2024/01/20 05:59:47;;;;;;;22.10;12.10;;;3.10;72.10;;;;;;5094466;28;20048;-72
2024/01/20 06:02:12;;;;;;;25.57;13.53;;;3.10;72.20;;;;;;5093832;28;20035;-72
2024/01/20 06:04:38;;;;;;;27.80;13.23;;;3.10;72.20;;;;;;5094134;28;20359;-72
2024/01/20 06:07:04;;;;;;;24.20;13.80;;;3.10;72.20;;;;;;5094354;28;20032;-72
2024/01/20 06:09:30;;;;;;;24.70;13.00;;;3.10;72.20;;;;;;5093169;28;20111;-72
2024/01/20 06:11:55;;;;;;;25.13;11.77;;;3.10;72.20;;;;;;5094401;28;20383;-73
2024/01/20 06:14:21;;;;;;;25.50;13.67;;;3.10;72.30;;;;;;5094179;28;20027;-72
2024/01/20 06:16:47;;;;;;;22.93;11.97;;;3.10;72.30;;;;;;5093606;28;20032;-72
2024/01/20 06:19:13;;;;;;;25.27;13.90;;;3.10;72.30;;;;;;5091577;28;20347;-72
2024/01/20 06:21:39;;;;;;;28.03;13.03;;;3.10;72.30;;;;;;5105269;28;20104;-72
2024/01/20 06:24:05;;;;;;;25.83;13.07;;;3.10;72.40;;;;;;5087160;28;20028;-72
2024/01/20 06:26:31;;;;;;;24.03;12.03;;;3.10;72.40;;;;;;5092403;28;20063;-72
2024/01/20 06:28:57;;;;;;;25.30;12.63;;;3.10;72.40;;;;;;5108588;28;20055;-73
2024/01/20 06:31:27;;;;;;;24.90;12.30;;;3.10;72.40;;;;;;5093121;28;20054;-73
2024/01/20 06:33:53;;;;;;;24.73;12.87;;;3.10;72.40;;;;;;5093081;28;20119;-72
2024/01/20 06:36:21;;;;;;;27.27;14.07;;;3.10;72.40;;;;;;5094394;28;20063;-73
2024/01/20 06:38:48;;;;;;;25.97;12.90;;;3.00;72.40;;;;;;5093471;28;20158;-73
2024/01/20 06:41:15;;;;;;;31.07;15.00;;;3.10;72.40;;;;;;5107128;28;20036;-72
2024/01/20 06:43:40;;;;;;;25.37;12.60;;;3.10;72.50;;;;;;5074498;28;20479;-72
2024/01/20 06:46:07;;;;;;;26.07;11.90;;;3.10;72.50;;;;;;5093403;28;20047;-72
2024/01/20 06:48:33;;;;;;;27.03;12.57;;;3.10;72.50;;;;;;5093832;28;20039;-72
2024/01/20 06:51:03;;;;;;;27.37;13.33;;;3.10;72.50;;;;;;5093528;28;20043;-72
2024/01/20 06:53:30;;;;;;;28.37;13.40;;;3.00;72.50;;;;;;5093436;28;20337;-72
2024/01/20 06:55:56;;;;;;;24.67;12.40;;;3.00;72.60;;;;;;5093942;28;20049;-72
2024/01/20 06:58:23;;;;;;;26.10;13.40;;;3.00;72.60;;;;;;5092878;28;20123;-72
2024/01/20 07:00:49;;;;;;;24.60;12.67;;;3.00;72.60;;;;;;5105408;28;20120;-72
2024/01/20 07:03:15;;;;;;;24.53;12.80;;;3.10;72.60;;;;;;5086689;28;20024;-72
2024/01/20 07:05:41;;;;;;;26.57;12.33;;;3.10;73.30;;;;;;5093745;28;20460;-72
2024/01/20 07:08:07;;;;;;;26.43;13.17;;;3.10;72.60;;;;;;5097163;28;20066;-72
2024/01/20 07:10:33;;;;;;;22.60;11.77;;;3.00;72.60;;;;;;5095985;28;20020;-73
2024/01/20 07:12:58;;;;;;;23.23;12.20;;;3.00;72.60;;;;;;5097548;28;20111;-72
2024/01/20 07:15:24;;;;;;;25.13;12.87;;;3.00;72.70;;;;;;5097247;28;20070;-72
2024/01/20 07:17:50;;;;;;;26.27;12.13;;;3.00;72.70;;;;;;5097786;28;20024;-72
2024/01/20 07:20:16;;;;;;;25.00;13.53;;;3.00;72.80;;;;;;5096273;28;20468;-72
2024/01/20 07:22:42;;;;;;;26.53;13.47;;;3.00;72.70;;;;;;5097201;28;20417;-72
2024/01/20 07:25:10;;;;;;;24.87;12.63;;;3.00;72.70;;;;;;5093848;28;20020;-72
2024/01/20 07:27:36;;;;;;;21.07;11.50;;;3.00;72.70;;;;;;5096477;28;20082;-72
2024/01/20 07:30:04;;;;;;;24.33;12.00;;;3.00;72.80;;;;;;5078857;28;20448;-74
2024/01/20 07:32:31;;;;;;;26.10;12.60;;;3.00;73.50;;;;;;5078847;28;20035;-71
2024/01/20 07:34:56;;;;;;;26.13;12.77;;;3.00;72.90;;;;;;5104129;28;20024;-71
2024/01/20 07:37:23;;;;;;;25.03;11.77;;;3.00;72.90;;;;;;5096285;28;20060;-72
2024/01/20 07:39:49;;;;;;;25.57;13.13;;;3.00;72.80;;;;;;5095711;28;20055;-72
2024/01/20 07:42:15;;;;;;;24.93;13.07;;;3.00;72.80;;;;;;5095628;28;20024;-71
2024/01/20 07:44:40;;;;;;;25.23;12.53;;;3.00;72.80;;;;;;5097127;28;20024;-72
2024/01/20 07:47:06;;;;;;;25.37;12.37;;;3.00;72.80;;;;;;5096269;28;20238;-74
2024/01/20 07:49:32;;;;;;;23.87;12.40;;;3.00;72.90;;;;;;5096366;28;20028;-74
2024/01/20 07:51:58;;;;;;;26.30;13.63;;;3.10;72.90;;;;;;5090421;28;20101;-74
2024/01/20 07:54:23;;;;;;;22.37;12.23;;;3.10;72.90;;;;;;5096137;28;20063;-72
2024/01/20 07:56:49;;;;;;;25.87;12.47;;;3.10;72.80;;;;;;5096370;28;20028;-73
2024/01/20 07:59:16;;;;;;;23.53;12.43;;;3.10;72.80;;;;;;5095019;28;20024;-74
2024/01/20 08:01:42;;;;;;;25.23;11.60;;;3.10;72.80;;;;;;5095410;28;20032;-72
2024/01/20 08:04:08;;;;;;;25.93;12.03;;;3.10;72.80;;;;;;5094483;28;20165;-73
2024/01/20 08:06:36;;;;;;;21.37;10.60;;;3.20;72.80;;;;;;5095481;28;20157;-70
2024/01/20 08:09:02;;;;;;;24.43;11.13;;;3.20;72.80;;;;;;5099953;28;20021;-73
2024/01/20 08:11:28;;;;;;;20.90;11.07;;;3.20;72.70;;;;;;5094269;28;20476;-72
2024/01/20 08:13:54;;;;;;;23.23;10.63;;;3.20;72.70;;;;;;5094640;28;20035;-76
2024/01/20 08:16:20;;;;;;;23.90;10.93;;;3.20;72.80;;;;;;5101341;28;20390;-72
2024/01/20 08:18:46;;;;;;;22.77;11.43;;;3.20;72.80;;;;;;5093632;28;20042;-73
2024/01/20 08:21:12;;;;;;;22.07;11.00;;;3.20;72.80;;;;;;5110282;28;20093;-71
2024/01/20 08:23:37;;;;;;;21.87;11.23;;;3.30;72.90;;;;;;5094198;28;20024;-72
2024/01/20 08:26:03;;;;;;;24.90;11.50;;;3.30;72.80;;;;;;5093322;28;20441;-70
2024/01/20 08:28:29;;;;;;;25.07;11.43;;;3.30;72.80;;;;;;5094219;28;20022;-73
2024/01/20 08:30:55;;;;;;;22.37;11.73;;;3.40;72.80;;;;;;5102644;28;20032;-73
2024/01/20 08:33:21;;;;;;;23.00;11.03;;;3.40;72.70;;;;;;5095175;28;20024;-73
2024/01/20 08:35:46;;;;;;;24.97;11.07;;;3.40;72.70;;;;;;5112926;27;20038;-73
2024/01/20 08:38:12;;;;;;;23.47;11.93;;;3.50;72.70;;;;;;5091980;28;20440;-71
2024/01/20 08:40:38;;;;;;;26.03;12.57;;;3.50;72.70;;;;;;5095623;28;20032;-72
2024/01/20 08:43:04;;;;;;;21.80;10.87;;;3.60;72.70;;;;;;5095656;28;20028;-70
2024/01/20 08:45:29;;;;;;;20.17;10.33;;;3.60;72.70;;;;;;5095280;28;20451;-70
2024/01/20 08:47:55;;;;;;;22.70;11.23;;;3.60;73.20;;;;;;5095944;28;20016;-70
2024/01/20 08:50:21;;;;;;;23.33;12.67;;;3.70;72.50;;;;;;5092953;28;20408;-71
2024/01/20 08:52:46;;;;;;;21.70;11.57;;;3.70;72.50;;;;;;5089797;28;20036;-71
2024/01/20 08:55:12;;;;;;;23.33;11.47;;;3.70;72.50;;;;;;5094484;28;20020;-69
2024/01/20 08:57:38;;;;;;;20.47;10.83;;;3.80;72.50;;;;;;5093830;28;20347;-72
2024/01/20 09:00:07;;;;;;;22.23;11.47;;;3.80;72.50;;;;;;5107552;28;20047;-74
2024/01/20 09:02:33;;;;;;;24.33;12.37;;;3.80;72.60;;;;;;5094722;28;20040;-73
2024/01/20 09:04:58;;;;;;;20.43;10.67;;;3.80;72.60;;;;;;5095222;28;20071;-72
2024/01/20 09:07:24;;;;;;;19.47;10.33;;;3.80;72.60;;;;;;5089489;28;20046;-73
2024/01/20 09:09:52;;;;;;;22.07;11.53;;;3.80;72.60;;;;;;5091897;28;20453;-73
2024/01/20 09:12:18;;;;;;;21.47;11.13;;;3.80;72.60;;;;;;5094549;28;20028;-75
2024/01/20 09:14:44;;;;;;;20.87;10.30;;;3.80;72.60;;;;;;5093587;28;20101;-74
2024/01/20 09:17:10;;;;;;;20.00;9.23;;;3.80;72.60;;;;;;5087459;28;20406;-72
2024/01/20 09:19:36;;;;;;;21.27;11.07;;;3.80;72.50;;;;;;5108980;28;20032;-74
2024/01/20 09:22:01;;;;;;;21.80;10.07;;;3.80;72.50;;;;;;5094694;28;20023;-73
2024/01/20 09:24:27;;;;;;;20.77;10.17;;;3.80;72.50;;;;;;5077087;28;20054;-73
2024/01/20 09:26:53;;;;;;;20.47;11.07;;;3.90;72.70;;;;;;5097666;28;20157;-73
2024/01/20 09:29:19;;;;;;;19.70;10.53;;;3.80;72.70;;;;;;5094551;28;20024;-73
2024/01/20 09:31:45;;;;;;;20.83;10.73;;;3.80;72.70;;;;;;5093270;28;20035;-73
2024/01/20 09:34:11;;;;;;;21.10;10.57;;;3.80;72.70;;;;;;5093927;28;20024;-73
2024/01/20 09:36:37;;;;;;;22.03;10.87;;;3.80;72.70;;;;;;5094838;28;20039;-73
2024/01/20 09:39:04;;;;;;;22.53;11.43;;;3.80;72.70;;;;;;5110874;28;20415;-73
2024/01/20 09:41:30;;;;;;;20.70;10.27;;;3.90;72.80;;;;;;5094758;28;20032;-73
2024/01/20 09:43:56;;;;;;;21.27;10.83;;;3.90;72.80;;;;;;5094885;28;20036;-73
2024/01/20 09:46:23;;;;;;;22.40;11.47;;;3.80;72.80;;;;;;5093311;28;20345;-74
2024/01/20 09:48:55;;;;;;;19.87;11.50;;;3.80;72.90;;;;;;5093389;28;20027;-73
2024/01/20 09:51:24;;;;;;;24.33;11.57;;;3.90;72.90;;;;;;5093913;28;20024;-73
2024/01/20 09:53:59;;;;;;;21.43;11.27;;;3.90;72.90;;;;;;5094611;28;20040;-73
2024/01/20 09:56:26;;;;;;;21.43;11.93;;;3.90;72.90;;;;;;5083628;28;20118;-73
2024/01/20 09:58:55;;;;;;;23.60;12.13;;;3.90;72.90;;;;;;5092203;28;20449;-74
2024/01/20 10:01:22;;;;;;;22.83;11.27;;;3.90;72.90;;;;;;5094777;28;20024;-74
2024/01/20 10:03:49;;;;;;;19.43;10.57;;;3.90;72.80;;;;;;5094277;28;20067;-74
2024/01/20 10:06:15;;;;;;;21.50;10.07;;;4.00;72.80;;;;;;5100431;28;20024;-74
2024/01/20 10:08:41;;;;;;;22.03;11.20;;;4.00;72.70;;;;;;5093174;28;20035;-74
2024/01/20 10:11:07;;;;;;;20.30;10.90;;;4.00;72.80;;;;;;5098694;28;20112;-72
2024/01/20 10:13:33;;;;;;;20.83;11.07;;;4.00;72.70;;;;;;5092533;28;20036;-74
2024/01/20 10:15:58;;;;;;;21.17;11.00;;;4.00;72.70;;;;;;5093220;28;20096;-73
2024/01/20 10:18:24;;;;;;;22.03;11.00;;;4.00;72.70;;;;;;5102494;28;20082;-74
2024/01/20 10:21:00;;;;;;;20.37;10.87;;;4.10;72.70;;;;;;5093789;28;20436;-73
2024/01/20 10:23:26;;;;;;;19.67;10.57;;;4.10;72.70;;;;;;5093196;28;20032;-74
2024/01/20 10:26:03;;;;;;;23.77;11.70;;;4.10;72.60;;;;;;5105121;28;20089;-72
2024/01/20 10:28:29;;;;;;;19.37;10.10;;;4.20;72.50;;;;;;5081156;28;20027;-73
2024/01/20 10:30:54;;;;;;;20.87;11.33;;;4.20;72.50;;;;;;5092184;28;20036;-72
2024/01/20 10:33:20;;;;;;;23.73;12.37;;;4.20;72.50;;;;;;5092355;28;20077;-72
2024/01/20 10:35:46;;;;;;;22.47;11.60;;;4.20;72.50;;;;;;5094468;28;20055;-71
2024/01/20 10:38:19;;;;;;;22.03;11.83;;;4.20;72.50;;;;;;5094173;28;20066;-71
2024/01/20 10:40:52;;;;;;;21.83;12.17;;;4.20;72.50;;;;;;5088677;28;20036;-71
2024/01/20 10:43:18;;;;;;;20.17;10.50;;;4.20;72.50;;;;;;5096781;28;20429;-70
2024/01/20 10:45:51;;;;;;;21.63;11.87;;;4.20;72.50;;;;;;5109772;28;20028;-71
2024/01/20 10:48:28;;;;;;;21.10;11.67;;;4.20;72.50;;;;;;5095361;28;20039;-71
2024/01/20 10:51:03;;;;;;;21.77;10.50;;;4.20;72.50;;;;;;5092192;28;20020;-71
2024/01/20 10:53:29;;;;;;;18.43;10.17;;;4.20;72.50;;;;;;5094806;28;20043;-70
2024/01/20 10:55:55;;;;;;;23.00;11.40;;;4.20;72.40;;;;;;5097587;28;20430;-70
2024/01/20 10:58:32;;;;;;;23.17;11.37;;;4.20;72.40;;;;;;5114464;27;20115;-72
2024/01/20 11:00:59;;;;;;;20.17;11.17;;;4.30;72.40;;;;;;5110853;28;20440;-71
2024/01/20 11:03:25;;;;;;;23.77;12.00;;;4.20;72.40;;;;;;5079403;28;20058;-71
2024/01/20 11:05:51;;;;;;;24.13;12.60;;;4.30;72.50;;;;;;5113135;28;20051;-73
2024/01/20 11:08:25;;;;;;;26.13;11.43;;;4.30;72.40;;;;;;5094231;28;20460;-71
2024/01/20 11:10:53;;;;;;;18.93;10.57;;;4.30;72.40;;;;;;5079866;28;20397;-71
2024/01/20 11:13:23;;;;;;;22.40;11.57;;;4.30;72.40;;;;;;5097536;28;20036;-73
2024/01/20 11:15:50;;;;;;;21.40;11.80;;;4.30;72.30;;;;;;5096801;28;20070;-73
2024/01/20 11:18:16;;;;;;;23.37;11.33;;;4.30;72.30;;;;;;5097134;28;20032;-73
2024/01/20 11:21:02;;;;;;;21.47;11.20;;;4.30;72.40;;;;;;5093531;28;20445;-73
2024/01/20 11:23:28;;;;;;;21.77;11.70;;;4.30;72.40;;;;;;5091199;28;20115;-73
2024/01/20 11:25:55;;;;;;;20.93;11.43;;;4.40;72.40;;;;;;5085942;28;20346;-71
2024/01/20 11:28:35;;;;;;;23.27;11.23;;;4.40;72.30;;;;;;5091975;28;20024;-73
2024/01/20 11:31:02;;;;;;;23.03;11.60;;;4.30;72.20;;;;;;5087476;28;20101;-73
2024/01/20 11:33:30;;;;;;;22.20;11.90;;;4.30;72.20;;;;;;5096944;28;20125;-72
2024/01/20 11:35:55;;;;;;;20.37;10.70;;;4.30;72.30;;;;;;5113035;28;20036;-72
2024/01/20 11:38:21;;;;;;;20.87;11.67;;;4.30;72.20;;;;;;5091622;28;20035;-73
2024/01/20 11:41:00;;;;;;;21.43;10.97;;;4.30;72.30;;;;;;5096076;28;20032;-70
2024/01/20 11:43:26;;;;;;;17.93;10.37;;;4.30;72.20;;;;;;5096719;28;20070;-72
2024/01/20 11:45:53;;;;;;;22.33;12.20;;;4.40;72.20;;;;;;5111581;28;20473;-73
2024/01/20 11:48:21;;;;;;;24.03;12.73;;;4.40;72.10;;;;;;5106839;28;20025;-72
2024/01/20 11:50:47;;;;;;;23.07;12.00;;;4.40;72.10;;;;;;5095332;28;20059;-70
2024/01/20 11:53:14;;;;;;;20.43;11.17;;;4.40;72.10;;;;;;5096571;28;20348;-69
2024/01/20 11:55:39;;;;;;;21.50;11.93;;;4.40;72.00;;;;;;5096632;28;20428;-69
2024/01/20 11:58:05;;;;;;;24.00;11.43;;;4.50;72.00;;;;;;5095953;28;20115;-70
2024/01/20 12:00:31;;;;;;;19.20;11.13;;;4.40;71.90;;;;;;5108205;28;20043;-71
2024/01/20 12:02:57;;;;;;;24.20;12.30;;;4.50;71.90;;;;;;5097276;28;20073;-72
2024/01/20 12:05:23;;;;;;;19.60;11.10;;;4.50;71.80;;;;;;5094127;28;20163;-73
2024/01/20 12:07:49;;;;;;;22.37;12.33;;;4.50;71.60;;;;;;5078339;28;20103;-72
2024/01/20 12:10:16;;;;;;;26.00;12.30;;;4.50;71.60;;;;;;5096830;28;20100;-72
2024/01/20 12:12:42;;;;;;;23.67;11.67;;;4.60;71.60;;;;;;5110930;28;20070;-72
2024/01/20 12:15:09;;;;;;;24.87;13.17;;;4.60;71.60;;;;;;5096674;28;20031;-72
2024/01/20 12:17:35;;;;;;;21.93;11.20;;;4.70;71.60;;;;;;5094724;28;20032;-73
2024/01/20 12:20:01;;;;;;;21.50;11.13;;;4.70;71.40;;;;;;5091894;28;20039;-73
2024/01/20 12:22:27;;;;;;;20.70;11.97;;;4.70;71.30;;;;;;5096097;28;20368;-72
2024/01/20 12:24:54;;;;;;;20.80;11.77;;;4.70;71.20;;;;;;5094374;28;20019;-73
2024/01/20 12:27:20;;;;;;;22.00;11.63;;;4.80;71.20;;;;;;5094152;28;20020;-69
2024/01/20 12:29:46;;;;;;;21.87;12.10;;;4.80;71.10;;;;;;5094446;28;20379;-71
2024/01/20 12:32:11;;;;;;;21.77;11.47;;;4.90;71.10;;;;;;5110612;27;20028;-72